sensor_id;sensor_type;location;lat;lon;timestamp;P1;durP1;ratioP1;P2;durP2;ratioP2
84247;SDS011;74387;44.536;18.530;2024-02-16T00:01:00;188.93;;;84.70;;
84247;SDS011;74387;44.536;18.530;2024-02-16T00:03:27;205.00;;;84.53;;
84247;SDS011;74387;44.536;18.530;2024-02-16T00:05:53;206.73;;;85.17;;
84247;SDS011;74387;44.536;18.530;2024-02-16T00:08:19;198.90;;;84.00;;
84247;SDS011;74387;44.536;18.530;2024-02-16T00:10:45;191.67;;;83.07;;
84247;SDS011;74387;44.536;18.530;2024-02-16T00:13:12;235.30;;;93.27;;
84247;SDS011;74387;44.536;18.530;2024-02-16T00:15:38;226.30;;;95.00;;
84247;SDS011;74387;44.536;18.530;2024-02-16T00:18:04;232.37;;;94.30;;
84247;SDS011;74387;44.536;18.530;2024-02-16T00:20:30;215.43;;;90.50;;
84247;SDS011;74387;44.536;18.530;2024-02-16T00:22:57;222.47;;;93.53;;
84247;SDS011;74387;44.536;18.530;2024-02-16T00:25:23;236.47;;;95.00;;
84247;SDS011;74387;44.536;18.530;2024-02-16T00:27:49;252.10;;;100.27;;
84247;SDS011;74387;44.536;18.530;2024-02-16T00:30:18;249.27;;;100.50;;
84247;SDS011;74387;44.536;18.530;2024-02-16T00:32:45;245.47;;;99.53;;
84247;SDS011;74387;44.536;18.530;2024-02-16T00:35:11;241.30;;;93.43;;
84247;SDS011;74387;44.536;18.530;2024-02-16T00:37:37;222.20;;;92.30;;
84247;SDS011;74387;44.536;18.530;2024-02-16T00:40:03;228.17;;;89.47;;
84247;SDS011;74387;44.536;18.530;2024-02-16T00:42:31;215.75;;;89.25;;
84247;SDS011;74387;44.536;18.530;2024-02-16T00:44:57;210.93;;;88.27;;
84247;SDS011;74387;44.536;18.530;2024-02-16T00:47:25;207.68;;;91.13;;
84247;SDS011;74387;44.536;18.530;2024-02-16T00:49:52;204.57;;;87.67;;
84247;SDS011;74387;44.536;18.530;2024-02-16T00:52:18;207.70;;;86.40;;
84247;SDS011;74387;44.536;18.530;2024-02-16T00:54:44;209.83;;;88.73;;
84247;SDS011;74387;44.536;18.530;2024-02-16T00:57:11;215.70;;;88.23;;
84247;SDS011;74387;44.536;18.530;2024-02-16T00:59:39;190.03;;;86.43;;
84247;SDS011;74387;44.536;18.530;2024-02-16T01:02:05;189.30;;;81.27;;
84247;SDS011;74387;44.536;18.530;2024-02-16T01:04:32;195.97;;;83.70;;
84247;SDS011;74387;44.536;18.530;2024-02-16T01:06:58;186.47;;;82.13;;
84247;SDS011;74387;44.536;18.530;2024-02-16T01:09:24;199.67;;;86.07;;
84247;SDS011;74387;44.536;18.530;2024-02-16T01:11:50;221.53;;;88.40;;
84247;SDS011;74387;44.536;18.530;2024-02-16T01:14:16;206.90;;;86.00;;
84247;SDS011;74387;44.536;18.530;2024-02-16T01:16:42;201.73;;;85.30;;
84247;SDS011;74387;44.536;18.530;2024-02-16T01:19:08;193.23;;;81.00;;
84247;SDS011;74387;44.536;18.530;2024-02-16T01:21:35;201.63;;;82.40;;
84247;SDS011;74387;44.536;18.530;2024-02-16T01:24:00;190.13;;;83.80;;
84247;SDS011;74387;44.536;18.530;2024-02-16T01:26:27;162.27;;;72.43;;
84247;SDS011;74387;44.536;18.530;2024-02-16T01:28:53;164.17;;;71.17;;
84247;SDS011;74387;44.536;18.530;2024-02-16T01:31:19;157.40;;;68.87;;
84247;SDS011;74387;44.536;18.530;2024-02-16T01:33:45;150.00;;;64.27;;
84247;SDS011;74387;44.536;18.530;2024-02-16T01:36:11;165.80;;;65.77;;
84247;SDS011;74387;44.536;18.530;2024-02-16T01:38:36;153.57;;;66.80;;
84247;SDS011;74387;44.536;18.530;2024-02-16T01:41:02;165.47;;;71.47;;
84247;SDS011;74387;44.536;18.530;2024-02-16T01:43:28;160.20;;;70.53;;
84247;SDS011;74387;44.536;18.530;2024-02-16T01:45:54;167.40;;;69.37;;
84247;SDS011;74387;44.536;18.530;2024-02-16T01:48:20;176.27;;;73.43;;
84247;SDS011;74387;44.536;18.530;2024-02-16T01:50:46;192.73;;;76.83;;
84247;SDS011;74387;44.536;18.530;2024-02-16T01:55:46;209.73;;;83.17;;
84247;SDS011;74387;44.536;18.530;2024-02-16T01:58:12;216.07;;;81.87;;
84247;SDS011;74387;44.536;18.530;2024-02-16T02:00:39;207.83;;;85.67;;
84247;SDS011;74387;44.536;18.530;2024-02-16T02:03:07;198.20;;;81.17;;
84247;SDS011;74387;44.536;18.530;2024-02-16T02:05:33;217.60;;;81.50;;
84247;SDS011;74387;44.536;18.530;2024-02-16T02:07:59;205.47;;;81.73;;
84247;SDS011;74387;44.536;18.530;2024-02-16T02:10:34;196.00;;;78.27;;
84247;SDS011;74387;44.536;18.530;2024-02-16T02:13:00;200.33;;;82.23;;
84247;SDS011;74387;44.536;18.530;2024-02-16T02:15:26;204.50;;;82.43;;
84247;SDS011;74387;44.536;18.530;2024-02-16T02:17:52;203.30;;;82.87;;
84247;SDS011;74387;44.536;18.530;2024-02-16T02:20:17;209.40;;;82.40;;
84247;SDS011;74387;44.536;18.530;2024-02-16T02:22:43;199.53;;;80.90;;
84247;SDS011;74387;44.536;18.530;2024-02-16T02:25:09;198.60;;;79.73;;
84247;SDS011;74387;44.536;18.530;2024-02-16T02:27:36;183.77;;;77.63;;
84247;SDS011;74387;44.536;18.530;2024-02-16T02:30:02;180.03;;;77.43;;
84247;SDS011;74387;44.536;18.530;2024-02-16T02:32:29;181.63;;;74.37;;
84247;SDS011;74387;44.536;18.530;2024-02-16T02:34:54;174.37;;;71.77;;
84247;SDS011;74387;44.536;18.530;2024-02-16T02:37:20;176.20;;;73.00;;
84247;SDS011;74387;44.536;18.530;2024-02-16T02:39:46;166.53;;;68.40;;
84247;SDS011;74387;44.536;18.530;2024-02-16T02:42:12;179.13;;;72.83;;
84247;SDS011;74387;44.536;18.530;2024-02-16T02:44:38;170.30;;;70.70;;
84247;SDS011;74387;44.536;18.530;2024-02-16T02:47:04;173.03;;;69.90;;
84247;SDS011;74387;44.536;18.530;2024-02-16T02:49:30;183.47;;;69.70;;
84247;SDS011;74387;44.536;18.530;2024-02-16T02:51:56;180.63;;;72.07;;
84247;SDS011;74387;44.536;18.530;2024-02-16T02:54:21;161.13;;;66.97;;
84247;SDS011;74387;44.536;18.530;2024-02-16T02:56:47;159.10;;;68.43;;
84247;SDS011;74387;44.536;18.530;2024-02-16T02:59:13;164.93;;;66.00;;
84247;SDS011;74387;44.536;18.530;2024-02-16T03:01:39;167.90;;;69.63;;
84247;SDS011;74387;44.536;18.530;2024-02-16T03:04:04;163.70;;;69.50;;
84247;SDS011;74387;44.536;18.530;2024-02-16T03:06:30;166.03;;;67.43;;
84247;SDS011;74387;44.536;18.530;2024-02-16T03:08:56;165.30;;;66.33;;
84247;SDS011;74387;44.536;18.530;2024-02-16T03:11:22;156.27;;;64.97;;
84247;SDS011;74387;44.536;18.530;2024-02-16T03:13:47;142.87;;;60.57;;
84247;SDS011;74387;44.536;18.530;2024-02-16T03:16:13;148.60;;;61.27;;
84247;SDS011;74387;44.536;18.530;2024-02-16T03:18:39;144.80;;;59.33;;
84247;SDS011;74387;44.536;18.530;2024-02-16T03:21:05;156.03;;;64.10;;
84247;SDS011;74387;44.536;18.530;2024-02-16T03:23:31;150.73;;;63.50;;
84247;SDS011;74387;44.536;18.530;2024-02-16T03:25:56;137.13;;;59.20;;
84247;SDS011;74387;44.536;18.530;2024-02-16T03:28:22;131.07;;;55.80;;
84247;SDS011;74387;44.536;18.530;2024-02-16T03:30:48;143.57;;;58.13;;
84247;SDS011;74387;44.536;18.530;2024-02-16T03:33:14;134.83;;;56.47;;
84247;SDS011;74387;44.536;18.530;2024-02-16T03:35:39;140.33;;;58.17;;
84247;SDS011;74387;44.536;18.530;2024-02-16T03:38:05;137.53;;;56.07;;
84247;SDS011;74387;44.536;18.530;2024-02-16T03:40:32;147.80;;;58.47;;
84247;SDS011;74387;44.536;18.530;2024-02-16T03:42:58;131.10;;;55.47;;
84247;SDS011;74387;44.536;18.530;2024-02-16T03:45:24;127.07;;;53.63;;
84247;SDS011;74387;44.536;18.530;2024-02-16T03:47:52;136.50;;;56.60;;
84247;SDS011;74387;44.536;18.530;2024-02-16T03:50:18;141.23;;;55.70;;
84247;SDS011;74387;44.536;18.530;2024-02-16T03:52:44;129.13;;;56.53;;
84247;SDS011;74387;44.536;18.530;2024-02-16T03:55:10;142.97;;;58.50;;
84247;SDS011;74387;44.536;18.530;2024-02-16T03:57:39;139.17;;;56.57;;
84247;SDS011;74387;44.536;18.530;2024-02-16T04:00:06;139.63;;;56.80;;
84247;SDS011;74387;44.536;18.530;2024-02-16T04:02:38;142.93;;;59.03;;
84247;SDS011;74387;44.536;18.530;2024-02-16T04:05:04;146.77;;;59.53;;
84247;SDS011;74387;44.536;18.530;2024-02-16T04:07:30;138.50;;;58.87;;
84247;SDS011;74387;44.536;18.530;2024-02-16T04:09:56;136.07;;;58.80;;
84247;SDS011;74387;44.536;18.530;2024-02-16T04:12:21;132.30;;;55.60;;
84247;SDS011;74387;44.536;18.530;2024-02-16T04:14:47;125.50;;;56.63;;
84247;SDS011;74387;44.536;18.530;2024-02-16T04:17:13;120.63;;;54.93;;
84247;SDS011;74387;44.536;18.530;2024-02-16T04:19:39;125.73;;;54.80;;
84247;SDS011;74387;44.536;18.530;2024-02-16T04:22:04;116.73;;;50.27;;
84247;SDS011;74387;44.536;18.530;2024-02-16T04:24:30;107.90;;;48.33;;
84247;SDS011;74387;44.536;18.530;2024-02-16T04:26:56;102.00;;;45.90;;
84247;SDS011;74387;44.536;18.530;2024-02-16T04:29:21;109.23;;;50.83;;
84247;SDS011;74387;44.536;18.530;2024-02-16T04:31:47;119.13;;;52.17;;
84247;SDS011;74387;44.536;18.530;2024-02-16T04:34:13;108.53;;;48.33;;
84247;SDS011;74387;44.536;18.530;2024-02-16T04:36:39;88.87;;;41.57;;
84247;SDS011;74387;44.536;18.530;2024-02-16T04:39:05;111.47;;;43.73;;
84247;SDS011;74387;44.536;18.530;2024-02-16T04:41:31;104.77;;;44.83;;
84247;SDS011;74387;44.536;18.530;2024-02-16T04:43:56;104.90;;;45.80;;
84247;SDS011;74387;44.536;18.530;2024-02-16T04:46:23;105.60;;;49.13;;
84247;SDS011;74387;44.536;18.530;2024-02-16T04:48:49;124.23;;;56.20;;
84247;SDS011;74387;44.536;18.530;2024-02-16T04:51:15;113.37;;;55.00;;
84247;SDS011;74387;44.536;18.530;2024-02-16T04:53:40;116.77;;;54.87;;
84247;SDS011;74387;44.536;18.530;2024-02-16T04:56:06;109.97;;;53.57;;
84247;SDS011;74387;44.536;18.530;2024-02-16T04:58:32;114.83;;;51.80;;
84247;SDS011;74387;44.536;18.530;2024-02-16T05:00:58;115.60;;;51.10;;
84247;SDS011;74387;44.536;18.530;2024-02-16T05:03:23;115.43;;;52.43;;
84247;SDS011;74387;44.536;18.530;2024-02-16T05:05:50;111.73;;;49.43;;
84247;SDS011;74387;44.536;18.530;2024-02-16T05:08:17;116.23;;;50.77;;
84247;SDS011;74387;44.536;18.530;2024-02-16T05:10:42;117.10;;;51.37;;
84247;SDS011;74387;44.536;18.530;2024-02-16T05:13:08;119.33;;;53.57;;
84247;SDS011;74387;44.536;18.530;2024-02-16T05:15:34;117.43;;;52.13;;
84247;SDS011;74387;44.536;18.530;2024-02-16T05:17:59;127.73;;;54.30;;
84247;SDS011;74387;44.536;18.530;2024-02-16T05:20:25;127.47;;;55.60;;
84247;SDS011;74387;44.536;18.530;2024-02-16T05:22:51;141.57;;;58.30;;
84247;SDS011;74387;44.536;18.530;2024-02-16T05:25:17;149.87;;;62.70;;
84247;SDS011;74387;44.536;18.530;2024-02-16T05:27:44;148.77;;;60.30;;
84247;SDS011;74387;44.536;18.530;2024-02-16T05:30:11;136.73;;;57.67;;
84247;SDS011;74387;44.536;18.530;2024-02-16T05:32:41;132.13;;;56.07;;
84247;SDS011;74387;44.536;18.530;2024-02-16T05:35:07;121.60;;;54.97;;
84247;SDS011;74387;44.536;18.530;2024-02-16T05:37:38;122.53;;;55.53;;
84247;SDS011;74387;44.536;18.530;2024-02-16T05:40:08;130.93;;;55.63;;
84247;SDS011;74387;44.536;18.530;2024-02-16T05:42:45;158.73;;;65.03;;
84247;SDS011;74387;44.536;18.530;2024-02-16T05:45:12;177.80;;;73.30;;
84247;SDS011;74387;44.536;18.530;2024-02-16T05:47:41;194.43;;;82.50;;
84247;SDS011;74387;44.536;18.530;2024-02-16T05:50:12;202.87;;;85.43;;
84247;SDS011;74387;44.536;18.530;2024-02-16T05:52:40;208.97;;;87.20;;
84247;SDS011;74387;44.536;18.530;2024-02-16T05:55:10;198.80;;;82.23;;
84247;SDS011;74387;44.536;18.530;2024-02-16T05:57:39;177.37;;;78.00;;
84247;SDS011;74387;44.536;18.530;2024-02-16T06:00:20;194.10;;;80.67;;
84247;SDS011;74387;44.536;18.530;2024-02-16T06:03:24;182.70;;;78.30;;
84247;SDS011;74387;44.536;18.530;2024-02-16T06:06:30;186.40;;;77.33;;
84247;SDS011;74387;44.536;18.530;2024-02-16T06:09:32;228.43;;;87.13;;
84247;SDS011;74387;44.536;18.530;2024-02-16T06:12:36;178.40;;;73.13;;
84247;SDS011;74387;44.536;18.530;2024-02-16T06:15:10;200.50;;;77.73;;
84247;SDS011;74387;44.536;18.530;2024-02-16T06:17:56;175.82;;;72.82;;
84247;SDS011;74387;44.536;18.530;2024-02-16T06:20:42;172.17;;;70.97;;
84247;SDS011;74387;44.536;18.530;2024-02-16T06:23:09;178.60;;;72.57;;
84247;SDS011;74387;44.536;18.530;2024-02-16T06:25:37;205.93;;;83.43;;
84247;SDS011;74387;44.536;18.530;2024-02-16T06:28:04;231.60;;;96.47;;
84247;SDS011;74387;44.536;18.530;2024-02-16T06:30:30;214.30;;;95.10;;
84247;SDS011;74387;44.536;18.530;2024-02-16T06:32:58;198.47;;;91.60;;
84247;SDS011;74387;44.536;18.530;2024-02-16T06:35:31;208.90;;;92.33;;
84247;SDS011;74387;44.536;18.530;2024-02-16T06:37:56;206.87;;;93.13;;
84247;SDS011;74387;44.536;18.530;2024-02-16T06:40:25;215.02;;;94.45;;
84247;SDS011;74387;44.536;18.530;2024-02-16T06:42:51;225.83;;;95.67;;
84247;SDS011;74387;44.536;18.530;2024-02-16T06:45:23;200.50;;;90.50;;
84247;SDS011;74387;44.536;18.530;2024-02-16T06:48:25;189.17;;;89.13;;
84247;SDS011;74387;44.536;18.530;2024-02-16T06:51:05;214.50;;;87.47;;
84247;SDS011;74387;44.536;18.530;2024-02-16T06:53:52;200.70;;;82.60;;
84247;SDS011;74387;44.536;18.530;2024-02-16T06:56:27;189.00;;;80.33;;
84247;SDS011;74387;44.536;18.530;2024-02-16T06:58:56;174.05;;;76.43;;
84247;SDS011;74387;44.536;18.530;2024-02-16T07:01:22;160.70;;;66.03;;
84247;SDS011;74387;44.536;18.530;2024-02-16T07:03:50;139.40;;;64.23;;
84247;SDS011;74387;44.536;18.530;2024-02-16T07:06:29;151.27;;;64.67;;
84247;SDS011;74387;44.536;18.530;2024-02-16T07:08:59;141.67;;;67.20;;
84247;SDS011;74387;44.536;18.530;2024-02-16T07:11:26;159.53;;;69.80;;
84247;SDS011;74387;44.536;18.530;2024-02-16T07:14:02;112.83;;;55.53;;
84247;SDS011;74387;44.536;18.530;2024-02-16T07:16:29;102.30;;;50.37;;
84247;SDS011;74387;44.536;18.530;2024-02-16T07:19:00;103.00;;;49.00;;
84247;SDS011;74387;44.536;18.530;2024-02-16T07:21:31;98.13;;;49.20;;
84247;SDS011;74387;44.536;18.530;2024-02-16T07:24:01;99.67;;;47.87;;
84247;SDS011;74387;44.536;18.530;2024-02-16T07:26:33;97.10;;;46.60;;
84247;SDS011;74387;44.536;18.530;2024-02-16T07:29:02;83.13;;;43.10;;
84247;SDS011;74387;44.536;18.530;2024-02-16T07:31:35;83.77;;;42.73;;
84247;SDS011;74387;44.536;18.530;2024-02-16T07:34:15;92.37;;;47.20;;
84247;SDS011;74387;44.536;18.530;2024-02-16T07:36:51;91.93;;;47.13;;
84247;SDS011;74387;44.536;18.530;2024-02-16T07:39:24;103.53;;;48.27;;
84247;SDS011;74387;44.536;18.530;2024-02-16T07:41:54;93.67;;;48.10;;
84247;SDS011;74387;44.536;18.530;2024-02-16T07:44:22;98.13;;;48.67;;
84247;SDS011;74387;44.536;18.530;2024-02-16T07:47:01;101.63;;;49.47;;
84247;SDS011;74387;44.536;18.530;2024-02-16T07:49:37;107.27;;;51.97;;
84247;SDS011;74387;44.536;18.530;2024-02-16T07:52:22;112.20;;;51.63;;
84247;SDS011;74387;44.536;18.530;2024-02-16T07:54:49;117.87;;;53.67;;
84247;SDS011;74387;44.536;18.530;2024-02-16T07:57:17;123.82;;;56.00;;
84247;SDS011;74387;44.536;18.530;2024-02-16T07:59:43;129.27;;;57.83;;
84247;SDS011;74387;44.536;18.530;2024-02-16T08:02:09;124.07;;;56.33;;
84247;SDS011;74387;44.536;18.530;2024-02-16T08:04:40;117.03;;;53.43;;
84247;SDS011;74387;44.536;18.530;2024-02-16T08:07:14;122.83;;;55.50;;
84247;SDS011;74387;44.536;18.530;2024-02-16T08:09:46;112.93;;;54.97;;
84247;SDS011;74387;44.536;18.530;2024-02-16T08:12:12;111.33;;;56.07;;
84247;SDS011;74387;44.536;18.530;2024-02-16T08:14:39;114.83;;;54.47;;
84247;SDS011;74387;44.536;18.530;2024-02-16T08:17:11;110.40;;;53.53;;
84247;SDS011;74387;44.536;18.530;2024-02-16T08:19:51;105.00;;;53.70;;
84247;SDS011;74387;44.536;18.530;2024-02-16T08:22:21;104.57;;;53.47;;
84247;SDS011;74387;44.536;18.530;2024-02-16T08:24:47;104.20;;;52.17;;
84247;SDS011;74387;44.536;18.530;2024-02-16T08:27:15;89.97;;;46.80;;
84247;SDS011;74387;44.536;18.530;2024-02-16T08:29:42;84.07;;;45.33;;
84247;SDS011;74387;44.536;18.530;2024-02-16T08:32:12;89.40;;;48.47;;
84247;SDS011;74387;44.536;18.530;2024-02-16T08:34:38;97.63;;;49.63;;
84247;SDS011;74387;44.536;18.530;2024-02-16T08:37:05;83.43;;;47.93;;
84247;SDS011;74387;44.536;18.530;2024-02-16T08:39:37;91.77;;;47.43;;
84247;SDS011;74387;44.536;18.530;2024-02-16T08:42:03;91.50;;;48.80;;
84247;SDS011;74387;44.536;18.530;2024-02-16T08:44:30;85.90;;;46.90;;
84247;SDS011;74387;44.536;18.530;2024-02-16T08:47:14;75.47;;;42.60;;
84247;SDS011;74387;44.536;18.530;2024-02-16T09:04:10;67.40;;;33.40;;
84247;SDS011;74387;44.536;18.530;2024-02-16T09:06:37;61.47;;;34.97;;
84247;SDS011;74387;44.536;18.530;2024-02-16T09:09:05;59.53;;;35.23;;
84247;SDS011;74387;44.536;18.530;2024-02-16T09:15:16;59.10;;;33.17;;
84247;SDS011;74387;44.536;18.530;2024-02-16T09:18:51;66.87;;;35.50;;
84247;SDS011;74387;44.536;18.530;2024-02-16T09:21:26;70.53;;;37.80;;
84247;SDS011;74387;44.536;18.530;2024-02-16T09:32:27;67.47;;;36.37;;
84247;SDS011;74387;44.536;18.530;2024-02-16T09:41:21;66.13;;;34.03;;
84247;SDS011;74387;44.536;18.530;2024-02-16T09:43:53;66.57;;;35.63;;
84247;SDS011;74387;44.536;18.530;2024-02-16T09:49:26;50.17;;;29.63;;
84247;SDS011;74387;44.536;18.530;2024-02-16T09:52:04;54.53;;;29.77;;
84247;SDS011;74387;44.536;18.530;2024-02-16T09:54:39;50.47;;;28.40;;
84247;SDS011;74387;44.536;18.530;2024-02-16T09:57:16;47.37;;;25.40;;
84247;SDS011;74387;44.536;18.530;2024-02-16T09:59:48;50.27;;;29.63;;
84247;SDS011;74387;44.536;18.530;2024-02-16T10:02:13;49.37;;;26.53;;
84247;SDS011;74387;44.536;18.530;2024-02-16T10:04:46;29.17;;;16.40;;
84247;SDS011;74387;44.536;18.530;2024-02-16T10:07:12;30.00;;;17.43;;
84247;SDS011;74387;44.536;18.530;2024-02-16T10:09:41;30.70;;;18.03;;
84247;SDS011;74387;44.536;18.530;2024-02-16T10:12:08;40.60;;;22.77;;
84247;SDS011;74387;44.536;18.530;2024-02-16T10:14:38;38.25;;;19.55;;
84247;SDS011;74387;44.536;18.530;2024-02-16T10:17:12;24.40;;;15.10;;
84247;SDS011;74387;44.536;18.530;2024-02-16T10:19:54;25.67;;;14.93;;
84247;SDS011;74387;44.536;18.530;2024-02-16T10:22:38;30.30;;;17.40;;
84247;SDS011;74387;44.536;18.530;2024-02-16T10:25:10;33.37;;;18.30;;
84247;SDS011;74387;44.536;18.530;2024-02-16T10:27:46;34.17;;;18.87;;
84247;SDS011;74387;44.536;18.530;2024-02-16T10:30:12;27.10;;;16.63;;
84247;SDS011;74387;44.536;18.530;2024-02-16T10:32:42;28.30;;;18.50;;
84247;SDS011;74387;44.536;18.530;2024-02-16T10:35:10;39.17;;;23.27;;
84247;SDS011;74387;44.536;18.530;2024-02-16T10:37:40;35.70;;;21.20;;
84247;SDS011;74387;44.536;18.530;2024-02-16T10:42:39;30.10;;;15.83;;
84247;SDS011;74387;44.536;18.530;2024-02-16T10:45:07;40.85;;;19.85;;
84247;SDS011;74387;44.536;18.530;2024-02-16T10:47:39;35.27;;;20.13;;
84247;SDS011;74387;44.536;18.530;2024-02-16T10:50:06;29.43;;;17.43;;
84247;SDS011;74387;44.536;18.530;2024-02-16T10:52:36;41.42;;;22.50;;
84247;SDS011;74387;44.536;18.530;2024-02-16T10:55:20;26.43;;;14.77;;
84247;SDS011;74387;44.536;18.530;2024-02-16T10:57:48;23.30;;;14.57;;
84247;SDS011;74387;44.536;18.530;2024-02-16T11:00:26;28.65;;;16.10;;
84247;SDS011;74387;44.536;18.530;2024-02-16T11:03:01;27.97;;;15.10;;
84247;SDS011;74387;44.536;18.530;2024-02-16T11:06:11;32.53;;;17.87;;
84247;SDS011;74387;44.536;18.530;2024-02-16T11:08:48;27.83;;;14.40;;
84247;SDS011;74387;44.536;18.530;2024-02-16T11:11:24;26.93;;;14.70;;
84247;SDS011;74387;44.536;18.530;2024-02-16T11:13:50;30.90;;;18.67;;
84247;SDS011;74387;44.536;18.530;2024-02-16T11:21:12;21.67;;;13.00;;
84247;SDS011;74387;44.536;18.530;2024-02-16T11:23:40;32.33;;;15.83;;
84247;SDS011;74387;44.536;18.530;2024-02-16T11:26:11;28.17;;;17.07;;
84247;SDS011;74387;44.536;18.530;2024-02-16T11:28:43;28.30;;;15.23;;
84247;SDS011;74387;44.536;18.530;2024-02-16T11:31:14;27.90;;;15.87;;
84247;SDS011;74387;44.536;18.530;2024-02-16T11:33:53;29.40;;;14.17;;
84247;SDS011;74387;44.536;18.530;2024-02-16T11:41:08;38.53;;;21.58;;
84247;SDS011;74387;44.536;18.530;2024-02-16T11:43:48;32.80;;;17.13;;
84247;SDS011;74387;44.536;18.530;2024-02-16T11:46:16;26.50;;;15.83;;
84247;SDS011;74387;44.536;18.530;2024-02-16T11:48:43;29.52;;;16.90;;
84247;SDS011;74387;44.536;18.530;2024-02-16T11:51:14;38.03;;;17.07;;
84247;SDS011;74387;44.536;18.530;2024-02-16T11:53:45;41.67;;;23.80;;
84247;SDS011;74387;44.536;18.530;2024-02-16T11:56:23;27.60;;;14.70;;
84247;SDS011;74387;44.536;18.530;2024-02-16T11:58:51;26.40;;;14.80;;
84247;SDS011;74387;44.536;18.530;2024-02-16T12:01:23;42.47;;;25.80;;
84247;SDS011;74387;44.536;18.530;2024-02-16T12:03:56;29.70;;;15.23;;
84247;SDS011;74387;44.536;18.530;2024-02-16T12:06:28;31.30;;;18.77;;
84247;SDS011;74387;44.536;18.530;2024-02-16T12:09:16;21.60;;;13.77;;
84247;SDS011;74387;44.536;18.530;2024-02-16T12:11:44;25.77;;;14.52;;
84247;SDS011;74387;44.536;18.530;2024-02-16T12:14:14;28.33;;;14.30;;
84247;SDS011;74387;44.536;18.530;2024-02-16T12:16:54;21.83;;;11.33;;
84247;SDS011;74387;44.536;18.530;2024-02-16T12:19:25;22.80;;;11.73;;
84247;SDS011;74387;44.536;18.530;2024-02-16T12:21:55;26.37;;;13.40;;
84247;SDS011;74387;44.536;18.530;2024-02-16T12:24:25;34.00;;;18.33;;
84247;SDS011;74387;44.536;18.530;2024-02-16T12:26:52;22.73;;;12.45;;
84247;SDS011;74387;44.536;18.530;2024-02-16T12:29:23;36.47;;;18.93;;
84247;SDS011;74387;44.536;18.530;2024-02-16T12:34:16;21.20;;;11.47;;
84247;SDS011;74387;44.536;18.530;2024-02-16T12:36:43;23.73;;;12.23;;
84247;SDS011;74387;44.536;18.530;2024-02-16T12:39:12;20.80;;;13.10;;
84247;SDS011;74387;44.536;18.530;2024-02-16T12:48:58;17.10;;;9.70;;
84247;SDS011;74387;44.536;18.530;2024-02-16T12:55:25;16.87;;;10.60;;
84247;SDS011;74387;44.536;18.530;2024-02-16T12:58:23;22.20;;;12.07;;
84247;SDS011;74387;44.536;18.530;2024-02-16T13:01:16;24.83;;;12.83;;
84247;SDS011;74387;44.536;18.530;2024-02-16T13:03:55;20.93;;;10.40;;
84247;SDS011;74387;44.536;18.530;2024-02-16T13:10:02;23.30;;;10.00;;
84247;SDS011;74387;44.536;18.530;2024-02-16T13:12:35;15.97;;;8.67;;
84247;SDS011;74387;44.536;18.530;2024-02-16T13:15:29;12.77;;;6.30;;
84247;SDS011;74387;44.536;18.530;2024-02-16T13:17:57;12.77;;;6.87;;
84247;SDS011;74387;44.536;18.530;2024-02-16T13:23:52;15.60;;;5.80;;
84247;SDS011;74387;44.536;18.530;2024-02-16T13:42:16;16.30;;;7.17;;
84247;SDS011;74387;44.536;18.530;2024-02-16T13:44:43;10.23;;;6.43;;
84247;SDS011;74387;44.536;18.530;2024-02-16T13:50:15;9.07;;;5.70;;
84247;SDS011;74387;44.536;18.530;2024-02-16T13:52:42;10.67;;;5.63;;
84247;SDS011;74387;44.536;18.530;2024-02-16T13:55:08;14.63;;;7.07;;
84247;SDS011;74387;44.536;18.530;2024-02-16T13:57:42;10.13;;;5.73;;
84247;SDS011;74387;44.536;18.530;2024-02-16T14:12:45;9.17;;;4.53;;
84247;SDS011;74387;44.536;18.530;2024-02-16T14:15:33;7.10;;;3.97;;
84247;SDS011;74387;44.536;18.530;2024-02-16T14:18:04;8.80;;;4.95;;
84247;SDS011;74387;44.536;18.530;2024-02-16T14:20:38;15.48;;;5.50;;
84247;SDS011;74387;44.536;18.530;2024-02-16T14:23:07;10.53;;;5.90;;
84247;SDS011;74387;44.536;18.530;2024-02-16T14:25:58;9.87;;;5.47;;
84247;SDS011;74387;44.536;18.530;2024-02-16T14:28:38;11.03;;;5.07;;
84247;SDS011;74387;44.536;18.530;2024-02-16T14:31:15;7.57;;;4.77;;
84247;SDS011;74387;44.536;18.530;2024-02-16T14:33:43;8.43;;;4.55;;
84247;SDS011;74387;44.536;18.530;2024-02-16T14:36:12;17.27;;;8.30;;
84247;SDS011;74387;44.536;18.530;2024-02-16T14:38:42;11.83;;;5.53;;
84247;SDS011;74387;44.536;18.530;2024-02-16T14:41:28;17.83;;;9.37;;
84247;SDS011;74387;44.536;18.530;2024-02-16T14:48:55;10.77;;;4.97;;
84247;SDS011;74387;44.536;18.530;2024-02-16T15:02:26;8.87;;;3.90;;
84247;SDS011;74387;44.536;18.530;2024-02-16T15:05:39;18.70;;;12.57;;
84247;SDS011;74387;44.536;18.530;2024-02-16T15:09:03;8.60;;;3.77;;
84247;SDS011;74387;44.536;18.530;2024-02-16T15:12:15;8.43;;;4.90;;
84247;SDS011;74387;44.536;18.530;2024-02-16T15:18:19;11.70;;;3.97;;
84247;SDS011;74387;44.536;18.530;2024-02-16T15:20:59;36.23;;;17.87;;
84247;SDS011;74387;44.536;18.530;2024-02-16T15:29:47;20.27;;;8.37;;
84247;SDS011;74387;44.536;18.530;2024-02-16T15:32:30;32.20;;;14.07;;
84247;SDS011;74387;44.536;18.530;2024-02-16T15:35:03;41.87;;;23.90;;
84247;SDS011;74387;44.536;18.530;2024-02-16T15:37:37;48.17;;;25.27;;
84247;SDS011;74387;44.536;18.530;2024-02-16T15:40:07;32.40;;;19.80;;
84247;SDS011;74387;44.536;18.530;2024-02-16T15:42:34;16.60;;;9.82;;
84247;SDS011;74387;44.536;18.530;2024-02-16T15:45:06;9.27;;;5.30;;
84247;SDS011;74387;44.536;18.530;2024-02-16T15:47:41;13.90;;;6.27;;
84247;SDS011;74387;44.536;18.530;2024-02-16T15:50:10;17.23;;;7.77;;
84247;SDS011;74387;44.536;18.530;2024-02-16T15:52:54;12.37;;;7.17;;
84247;SDS011;74387;44.536;18.530;2024-02-16T15:56:02;13.97;;;7.90;;
84247;SDS011;74387;44.536;18.530;2024-02-16T15:58:33;21.07;;;8.50;;
84247;SDS011;74387;44.536;18.530;2024-02-16T16:01:32;15.30;;;7.47;;
84247;SDS011;74387;44.536;18.530;2024-02-16T16:04:06;15.53;;;9.07;;
84247;SDS011;74387;44.536;18.530;2024-02-16T16:06:44;16.10;;;9.17;;
84247;SDS011;74387;44.536;18.530;2024-02-16T16:09:20;18.27;;;9.33;;
84247;SDS011;74387;44.536;18.530;2024-02-16T16:11:48;21.13;;;9.87;;
84247;SDS011;74387;44.536;18.530;2024-02-16T16:17:04;20.27;;;10.33;;
84247;SDS011;74387;44.536;18.530;2024-02-16T16:19:34;22.93;;;12.80;;
84247;SDS011;74387;44.536;18.530;2024-02-16T16:22:00;25.30;;;13.47;;
84247;SDS011;74387;44.536;18.530;2024-02-16T16:24:32;27.60;;;14.13;;
84247;SDS011;74387;44.536;18.530;2024-02-16T16:26:59;40.83;;;18.13;;
84247;SDS011;74387;44.536;18.530;2024-02-16T16:29:30;30.77;;;16.57;;
84247;SDS011;74387;44.536;18.530;2024-02-16T16:32:03;29.50;;;15.30;;
84247;SDS011;74387;44.536;18.530;2024-02-16T16:34:35;31.50;;;15.70;;
84247;SDS011;74387;44.536;18.530;2024-02-16T16:37:10;31.77;;;16.57;;